createdAt,value
2023-09-23T00:02:44.836Z,70.89003820891698
2023-09-23T00:05:45.438Z,70.90395278981454
2023-09-23T00:08:41.711Z,70.99323387299391
2023-09-23T00:11:38.384Z,70.65293485696647
2023-09-23T00:14:33.799Z,70.35962476389774
2023-09-23T00:17:29.409Z,70.14246706435875
2023-09-23T00:20:27.908Z,69.97113111964043
2023-09-23T00:23:28.475Z,69.67928763015574
2023-09-23T00:26:27.003Z,70.02819871844572
2023-09-23T00:29:27.565Z,70.0999094722457
2023-09-23T00:32:24.145Z,70.35875778106424
2023-09-23T00:35:22.678Z,70.56279139784495
2023-09-23T00:38:23.240Z,70.15770352301138
2023-09-23T00:41:19.865Z,69.32535453477445
2023-09-23T00:44:17.416Z,69.51491098442891
2023-09-23T00:47:15.977Z,69.16907669563518
2023-09-23T00:50:18.600Z,69.00055635360344
2023-09-23T00:53:15.114Z,69.20884755234195
2023-09-23T00:56:17.617Z,69.12893552681334
2023-09-23T00:59:18.203Z,68.87183034942463
2023-09-23T01:02:14.798Z,68.98298037949209
2023-09-23T01:05:10.232Z,69.61452519612514
2023-09-23T01:08:19.812Z,69.62473828200541
2023-09-23T01:11:18.373Z,69.29732057176753
2023-09-23T01:14:15.980Z,68.93986838080848
2023-09-23T01:17:15.478Z,68.78118048433572
2023-09-23T01:20:15.053Z,69.17398007483182
2023-09-23T01:23:11.536Z,69.12424690726992
2023-09-23T01:26:13.297Z,68.93074409241822
2023-09-23T01:29:08.698Z,68.94550625878885
2023-09-23T01:32:14.240Z,68.93423049336066
2023-09-23T01:35:09.775Z,68.87966846689821
2023-09-23T01:38:08.315Z,68.62036414805917
2023-09-23T01:41:05.881Z,70.00803747628431
2023-09-23T01:44:02.484Z,69.36799176724341
2023-09-23T01:46:59.087Z,69.08742641856246
2023-09-23T01:49:54.606Z,68.79080867410737
2023-09-23T01:52:50.140Z,68.79262120492355
2023-09-23T01:55:47.682Z,68.23489748146788
2023-09-23T01:58:46.154Z,68.4991061236085
2023-09-23T02:01:41.867Z,68.51357301861954
2023-09-23T02:04:41.466Z,68.69452495863446
2023-09-23T02:07:39.910Z,68.60964676056756
2023-09-23T02:10:36.434Z,68.76981007392588
2023-09-23T02:13:36.987Z,69.02041696250608
2023-09-23T02:16:34.679Z,69.06399535683678
2023-09-23T02:19:30.108Z,68.94931277331509
2023-09-23T02:22:25.671Z,68.58847681019999
2023-09-23T02:25:26.551Z,68.80994097067715
2023-09-23T02:28:21.826Z,68.6528213254349
2023-09-23T02:31:17.395Z,68.99290767054525
2023-09-23T02:34:12.894Z,68.9605915824633
2023-09-23T02:37:09.484Z,68.88749734255293
2023-09-23T02:40:07.028Z,68.80312941919897
2023-09-23T02:43:05.584Z,68.88351699449954
2023-09-23T02:46:01.197Z,69.41890398051565
2023-09-23T02:48:57.721Z,70.23337690332318
2023-09-23T02:51:53.262Z,69.57405207609392
2023-09-23T02:54:52.823Z,71.32595315866874
2023-09-23T02:57:50.379Z,72.92484492229491
2023-09-23T03:00:57.916Z,73.59189229166395
2023-09-23T03:07:02.998Z,73.15189285287659
2023-09-23T03:10:01.611Z,74.65940470409024
2023-09-23T03:13:06.133Z,75.21527383161697
2023-09-23T03:16:11.652Z,77.00931510561168
2023-09-23T03:19:11.196Z,78.4541008488695
2023-09-23T03:22:08.723Z,80.56351525622854
2023-09-23T03:25:05.301Z,78.54978340892482
2023-09-23T03:28:00.854Z,78.4485196692342
2023-09-23T03:30:59.377Z,80.16184007070305
2023-09-23T03:33:57.029Z,81.25146855340604
2023-09-23T03:36:53.548Z,81.07933190460383
2023-09-23T03:39:50.070Z,81.98469781338466
2023-09-23T03:42:48.652Z,81.8236796118681
2023-09-23T03:45:44.269Z,81.57528480767759
2023-09-23T03:48:39.737Z,82.4090361191298
2023-09-23T03:51:38.317Z,82.0406349827716
2023-09-23T03:54:33.830Z,81.39196099501474
2023-09-23T03:57:29.490Z,80.71292225024025
2023-09-23T04:00:27.986Z,79.47296029838313
2023-09-23T04:03:23.600Z,79.4098260818747
2023-09-23T04:06:25.094Z,79.70933915363658
2023-09-23T04:09:21.669Z,78.71953980559897
2023-09-23T04:12:19.297Z,77.17215233632135
2023-09-23T04:15:15.773Z,76.65349821377679
2023-09-23T04:18:12.352Z,76.33321664784377
2023-09-23T04:21:09.951Z,75.82108804363455
2023-09-23T04:24:07.453Z,76.15586868172936
2023-09-23T04:27:03.013Z,76.2184614558024
2023-09-23T04:30:02.661Z,76.09827021069455
2023-09-23T04:33:01.232Z,77.05175686003906
2023-09-23T04:35:57.648Z,77.25552321499967
2023-09-23T04:38:53.253Z,76.24778353060448
2023-09-23T04:41:48.781Z,75.45270123334963
2023-09-23T04:44:45.580Z,75.43592391831716
2023-09-23T04:47:40.945Z,76.20515067174154
2023-09-23T04:50:40.466Z,77.68549865692542
2023-09-23T04:53:36.999Z,77.15903875422528
2023-09-23T04:56:41.562Z,76.11424933185687
2023-09-23T04:59:38.120Z,76.0542999216146
2023-09-23T05:02:33.931Z,75.4957711613967
2023-09-23T05:05:29.352Z,75.05025344422059
2023-09-23T05:08:25.876Z,74.69411959039978
2023-09-23T05:11:22.656Z,76.63383510661878
2023-09-23T05:14:18.042Z,78.32210534270737
2023-09-23T05:17:16.488Z,77.21056000889077
2023-09-23T05:20:15.039Z,77.6501201162316
2023-09-23T05:23:11.653Z,77.2750893283901
2023-09-23T05:26:09.209Z,79.12401381574604
2023-09-23T05:29:04.757Z,80.70994384927036
2023-09-23T05:32:02.329Z,81.29276141917148
2023-09-23T05:35:01.844Z,81.6943117886377
2023-09-23T05:37:57.425Z,81.1613494636303
2023-09-23T05:40:57.999Z,81.54477616017428
2023-09-23T05:43:54.496Z,81.96559206540736
2023-09-23T05:46:51.084Z,81.20347220219169
2023-09-23T05:49:47.885Z,80.73097868876687
2023-09-23T05:52:46.206Z,80.07627351137235
2023-09-23T05:55:41.716Z,79.2164787985186
2023-09-23T05:58:37.283Z,78.05736023630686
2023-09-23T06:01:34.881Z,77.11014402571597
2023-09-23T06:04:31.468Z,77.07009408532866
2023-09-23T06:07:27.982Z,76.43239680508138
2023-09-23T06:10:23.608Z,75.7122477472079
2023-09-23T06:13:19.088Z,74.74139304191502
2023-09-23T06:16:17.729Z,73.36263661352454
2023-09-23T06:19:14.233Z,72.80779169375141
2023-09-23T06:22:09.809Z,74.40978935252052
2023-09-23T06:25:07.397Z,73.46776325225628
2023-09-23T06:28:04.901Z,74.42955124375989
2023-09-23T06:31:00.464Z,75.85979135915707
2023-09-23T06:33:55.968Z,77.36874044236072
2023-09-23T06:36:51.565Z,76.93544784920353
2023-09-23T06:39:47.141Z,75.59208477316837
2023-09-23T06:42:45.697Z,75.00158014025314
2023-09-23T06:45:42.243Z,73.59254844307091
2023-09-23T06:48:38.804Z,73.45382558266667
2023-09-23T06:51:35.334Z,72.69633090056723
2023-09-23T06:54:30.936Z,72.53499230206396
2023-09-23T06:57:26.469Z,74.79793393997012
2023-09-23T07:00:23.019Z,75.70354525789605
2023-09-23T07:03:18.819Z,77.66841017731895
2023-09-23T07:06:15.165Z,79.80932977322897
2023-09-23T07:09:11.749Z,79.81918981492359
2023-09-23T07:12:07.330Z,81.14887483658556
2023-09-23T07:15:03.850Z,82.28386258627239
2023-09-23T07:18:00.401Z,81.87828675182728
2023-09-23T07:20:56.960Z,79.79629213630746
2023-09-23T07:23:52.527Z,79.29489684837552
2023-09-23T07:26:55.068Z,78.00713886922304
2023-09-23T07:29:51.638Z,75.98733400472298
2023-09-23T07:32:47.206Z,75.21458226158691
2023-09-23T07:35:43.776Z,73.02625898557726
2023-09-23T07:38:40.291Z,73.02510118883461
2023-09-23T07:41:36.864Z,70.66876076201721
2023-09-23T07:44:32.476Z,70.08533360680899
2023-09-23T07:47:28.082Z,70.24572592818015
2023-09-23T07:50:24.647Z,67.36979933824135
2023-09-23T07:53:20.169Z,67.71652588718379
2023-09-23T07:56:16.718Z,65.04344367795886
2023-09-23T07:59:12.280Z,65.89562173279872
2023-09-23T08:02:07.867Z,65.56186976262441
2023-09-23T08:05:05.511Z,63.817299110502546
2023-09-23T08:08:00.958Z,63.444339891030495
2023-09-23T08:10:56.532Z,62.48781577810961
2023-09-23T08:13:53.069Z,61.60376416892458
2023-09-23T08:16:49.607Z,62.303711802188666
2023-09-23T08:19:46.143Z,62.239590670265464
2023-09-23T08:22:41.745Z,63.69934443211199
2023-09-23T08:25:37.341Z,61.878257633085155
2023-09-23T08:28:35.852Z,61.73403737057507
2023-09-23T08:31:32.433Z,60.856953708842646
2023-09-23T08:34:28.934Z,60.025723515098164
2023-09-23T08:37:24.503Z,60.71682959671659
2023-09-23T08:40:22.079Z,59.87712792262449
2023-09-23T08:43:36.549Z,60.47273881955945
2023-09-23T08:46:33.144Z,61.76828460101076
2023-09-23T08:49:29.747Z,59.11244470140772
2023-09-23T08:52:28.269Z,58.25787124426775
2023-09-23T08:55:25.834Z,57.497374413422236
2023-09-23T08:58:22.401Z,56.888459775362946
2023-09-23T09:01:22.025Z,54.82402326028935
2023-09-23T09:04:18.476Z,52.43590909519538
2023-09-23T09:07:24.022Z,51.94127665932002
2023-09-23T09:10:19.677Z,50.17487313042904
2023-09-23T09:13:18.135Z,50.77226951037833
2023-09-23T09:16:14.704Z,51.32132459351616
2023-09-23T09:19:11.258Z,49.59712067096456
2023-09-23T09:22:08.807Z,49.62608697987025
2023-09-23T09:25:08.388Z,49.05261662463346
2023-09-23T09:28:04.940Z,49.607609253245435
2023-09-23T09:31:02.570Z,49.557633967824934
2023-09-23T09:34:00.988Z,47.85700685924968
2023-09-23T09:36:58.602Z,46.06131202761155
2023-09-23T09:39:59.158Z,46.43724999423092
2023-09-23T09:46:11.448Z,46.15883090443508
2023-09-23T09:49:10.741Z,44.79273200243579
2023-09-23T09:52:07.320Z,42.9640405352031
2023-09-23T09:55:06.905Z,43.90874004317811
2023-09-23T09:58:05.432Z,41.74897885954868
2023-09-23T10:01:03.050Z,41.89422848416765
2023-09-23T10:04:00.628Z,41.461141221806336
2023-09-23T10:06:57.120Z,42.54954341374461
2023-09-23T10:09:59.664Z,41.71887427836958
2023-09-23T10:13:04.167Z,41.4203905906154
2023-09-23T10:16:05.717Z,40.77997766974467
2023-09-23T10:19:11.329Z,41.351347213266386
2023-09-23T10:22:13.834Z,41.02828952400816
2023-09-23T10:25:12.377Z,41.980292999920685
2023-09-23T10:28:17.917Z,39.39107239370873
2023-09-23T10:31:16.471Z,37.840963404989125
2023-09-23T10:34:15.011Z,36.78379268897758
2023-09-23T10:37:13.572Z,36.88181764802183
2023-09-23T10:40:14.186Z,36.856924550260345
2023-09-23T10:43:10.665Z,36.55436275348449
2023-09-23T10:46:07.317Z,37.4900863966029
2023-09-23T10:49:05.775Z,37.88876198430102
2023-09-23T10:52:02.371Z,36.91308910249215
2023-09-23T10:54:58.917Z,35.307190714074146
2023-09-23T10:57:56.496Z,35.67963671174837
2023-09-23T11:00:54.036Z,36.5289051859395
2023-09-23T11:03:52.811Z,35.196884326171194
2023-09-23T11:06:49.185Z,34.780873990583004
2023-09-23T11:09:46.787Z,33.58847723183919
2023-09-23T11:12:46.303Z,33.846191926097724
2023-09-23T11:15:47.076Z,33.13374312597997
2023-09-23T11:18:44.369Z,34.637297697455416
2023-09-23T11:21:43.910Z,33.28096391884589
2023-09-23T11:24:40.558Z,34.08252709169618
2023-09-23T11:27:39.057Z,31.22996200400649
2023-09-23T11:30:37.582Z,32.662292789802315
2023-09-23T11:33:38.111Z,32.0702082785051
2023-09-23T11:36:34.727Z,34.16798837285444
2023-09-23T11:39:36.269Z,31.99440028454716
2023-09-23T11:42:34.774Z,32.76471491315873
2023-09-23T11:45:33.374Z,30.57579311652039
2023-09-23T11:48:29.947Z,31.25179872562655
2023-09-23T11:51:27.548Z,28.879730072379402
2023-09-23T11:54:23.036Z,28.246833689143447
2023-09-23T11:57:19.630Z,30.713376627728174
2023-09-23T12:00:18.559Z,30.11763891423812
2023-09-23T12:03:15.737Z,32.94181210167466
2023-09-23T12:06:13.261Z,34.38899727715563
2023-09-23T12:09:11.863Z,34.334906499310875
2023-09-23T12:12:10.383Z,34.70688670322415
2023-09-23T12:15:08.938Z,38.483596351795235
2023-09-23T12:18:05.526Z,40.065943136755095
2023-09-23T12:21:02.539Z,38.28421288724619
2023-09-23T12:23:59.612Z,34.75448327757865
2023-09-23T12:27:00.146Z,35.432995192583434
2023-09-23T12:29:56.675Z,36.172608775847166
2023-09-23T12:32:52.378Z,34.866426952023154
2023-09-23T12:35:47.903Z,35.23182147098101
2023-09-23T12:38:43.373Z,34.489414198686795
2023-09-23T12:41:43.936Z,36.1240490463218
2023-09-23T12:44:41.520Z,36.61643327101796
2023-09-23T12:47:54.989Z,37.05849153019784
2023-09-23T12:50:41.607Z,37.72081247332834
2023-09-23T12:53:38.190Z,39.630712778218054
2023-09-23T12:56:34.738Z,40.86063270162839
2023-09-23T12:59:32.288Z,42.42642468030986
2023-09-23T13:02:28.972Z,42.804911874144565
2023-09-23T13:05:24.433Z,43.85100549913229
2023-09-23T13:08:21.024Z,43.712245977770294
2023-09-23T13:11:17.517Z,44.84353331101879
2023-09-23T13:14:13.089Z,45.255369108258854
2023-09-23T13:17:09.657Z,45.611257861882926
2023-09-23T13:20:07.348Z,46.66971411302046
2023-09-23T13:23:04.079Z,47.65458962450087
2023-09-23T13:26:03.366Z,47.72903905561707
2023-09-23T13:28:58.898Z,48.41539193004384
2023-09-23T13:31:54.422Z,48.71059329864277
2023-09-23T13:34:50.054Z,49.21789181504443
2023-09-23T13:37:45.522Z,49.11332489654116
2023-09-23T13:40:43.117Z,49.04872158870063
2023-09-23T13:43:40.717Z,49.17916166888075
2023-09-23T13:46:37.291Z,48.63517106050578
2023-09-23T13:49:32.802Z,49.16212321852887
2023-09-23T13:52:30.330Z,49.27401132563651
2023-09-23T13:55:25.898Z,48.4413461600963
2023-09-23T13:58:21.409Z,49.6446707266056
2023-09-23T14:01:17.086Z,49.623055265430246
2023-09-23T14:04:13.638Z,50.40929950173374
2023-09-23T14:07:09.142Z,50.15312657807176
2023-09-23T14:10:18.676Z,54.19004101678559
2023-09-23T14:13:06.243Z,55.967182690611004
2023-09-23T14:16:02.960Z,56.831860470142004
2023-09-23T14:18:58.360Z,58.35251103277246
2023-09-23T14:21:55.949Z,58.98437188120707
2023-09-23T14:24:52.497Z,57.83168499848637
2023-09-23T14:27:49.020Z,57.8828475530387
2023-09-23T14:30:44.623Z,58.97640974781474
2023-09-23T14:33:42.180Z,57.65582237590248
2023-09-23T14:36:38.766Z,60.92302735146452
2023-09-23T14:39:36.276Z,65.44722882764653
2023-09-23T14:42:34.861Z,67.97060439644247
2023-09-23T14:45:31.447Z,70.34877565606453
2023-09-23T14:48:28.023Z,72.35033598687434
2023-09-23T14:51:24.518Z,75.29169705282749
2023-09-23T14:54:20.064Z,77.84980527494187
2023-09-23T14:57:16.627Z,75.63993458462534
2023-09-23T15:00:14.212Z,76.72531728189968
2023-09-23T15:03:10.857Z,77.3625547288704
2023-09-23T15:06:07.334Z,79.86796477508813
2023-09-23T15:09:03.339Z,82.23771099652211
2023-09-23T15:12:01.445Z,80.48424891713834
2023-09-23T15:14:57.026Z,82.92708287195934
2023-09-23T15:17:53.605Z,80.44417455426193
2023-09-23T15:20:50.126Z,80.9854939355138
2023-09-23T15:23:45.701Z,81.2843626453056
2023-09-23T15:26:42.235Z,81.17770483637355
2023-09-23T15:29:37.832Z,80.17496603512524
2023-09-23T15:32:35.419Z,81.1698522495939
2023-09-23T15:35:31.972Z,79.51786731633084
2023-09-23T15:38:27.495Z,77.9122458304766
2023-09-23T15:41:25.080Z,79.4934293020497
2023-09-23T15:44:20.635Z,82.62939885745453
2023-09-23T15:47:18.177Z,82.67493161666758
2023-09-23T15:50:15.742Z,80.69477834540133
2023-09-23T15:53:11.289Z,79.51051487081935
2023-09-23T15:56:08.875Z,85.12491578361343
2023-09-23T15:59:05.442Z,91.65373767648934
2023-09-23T16:02:01.132Z,95.13808553543821
2023-09-23T16:04:56.565Z,94.47790902381072
2023-09-23T16:07:52.054Z,94.63596153631217
2023-09-23T16:10:47.676Z,95.675524584664
2023-09-23T16:13:43.212Z,94.97135725012107
2023-09-23T16:16:38.894Z,95.18875987908447
2023-09-23T16:19:35.312Z,97.33588944030419
2023-09-23T16:22:31.898Z,99.60264871369823
2023-09-23T16:25:27.485Z,100
2023-09-23T16:28:22.999Z,100
2023-09-23T16:31:18.647Z,100
2023-09-23T16:34:14.116Z,100
2023-09-23T16:37:09.660Z,100
2023-09-23T16:40:08.259Z,100
2023-09-23T16:43:04.780Z,98.95816279479828
2023-09-23T16:46:01.325Z,97.96480783412834
2023-09-23T16:48:58.915Z,99.28607098638558
2023-09-23T16:51:55.487Z,99.80680326586752
2023-09-23T16:54:51.033Z,98.76323196341849
2023-09-23T16:57:51.627Z,97.87568640570737
2023-09-23T17:00:49.174Z,99.56051195780557
2023-09-23T17:03:45.536Z,100
2023-09-23T17:06:42.247Z,99.4717452270027
2023-09-23T17:09:37.840Z,100
2023-09-23T17:12:34.490Z,100
2023-09-23T17:15:33.935Z,100
2023-09-23T17:18:30.504Z,100
2023-09-23T17:21:26.081Z,100
2023-09-23T17:24:21.628Z,100
2023-09-23T17:27:17.228Z,100
2023-09-23T17:30:12.734Z,100
2023-09-23T17:33:08.507Z,100
2023-09-23T17:36:05.884Z,100
2023-09-23T17:39:05.428Z,100
2023-09-23T17:42:02.968Z,100
2023-09-23T17:44:58.547Z,100
2023-09-23T17:47:54.258Z,100
2023-09-23T17:50:49.728Z,100
2023-09-23T17:53:47.343Z,100
2023-09-23T17:56:42.864Z,100
2023-09-23T17:59:39.365Z,100
2023-09-23T18:02:36.132Z,100
2023-09-23T18:05:33.581Z,100
2023-09-23T18:08:29.045Z,100
2023-09-23T18:11:29.599Z,100
2023-09-23T18:14:25.138Z,100
2023-09-23T18:17:21.091Z,100
2023-09-23T18:20:22.287Z,100
2023-09-23T18:26:24.436Z,100
2023-09-23T18:29:22.037Z,100
2023-09-23T18:32:22.472Z,100
2023-09-23T18:35:19.065Z,100
2023-09-23T18:38:16.633Z,100
2023-09-23T18:41:16.192Z,100
2023-09-23T18:44:12.842Z,100
2023-09-23T18:47:11.190Z,100
2023-09-23T18:50:07.808Z,100
2023-09-23T18:53:05.321Z,100
2023-09-23T18:56:02.879Z,100
2023-09-23T18:58:59.470Z,100
2023-09-23T19:01:56.012Z,100
2023-09-23T19:04:52.578Z,100
2023-09-23T19:07:49.129Z,100
2023-09-23T19:10:46.684Z,100
2023-09-23T19:13:43.247Z,100
2023-09-23T19:16:40.828Z,100
2023-09-23T19:19:38.383Z,100
2023-09-23T19:22:33.920Z,100
2023-09-23T19:25:35.520Z,95.75188049775413
2023-09-23T19:28:30.992Z,93.46604084614242
2023-09-23T19:31:29.616Z,94.10853126343218
2023-09-23T19:34:27.132Z,96.53771045085952
2023-09-23T19:37:28.766Z,98.07349381776811
2023-09-23T19:40:25.251Z,96.09834344915916
2023-09-23T19:43:23.774Z,96.12724320714874
2023-09-23T19:46:27.418Z,96.32325840520434
2023-09-23T19:49:24.971Z,95.53927760836748
2023-09-23T19:52:22.442Z,96.0347401180816
2023-09-23T19:55:20.118Z,97.78625232921934
2023-09-23T19:58:19.604Z,96.95061075132904
2023-09-23T20:01:18.186Z,96.28682292866867
2023-09-23T20:04:14.678Z,92.26762877468768
2023-09-23T20:07:12.257Z,90.26635105873784
2023-09-23T20:10:10.770Z,88.31769090224937
2023-09-23T20:13:11.379Z,87.021914725929
2023-09-23T20:16:10.264Z,86.9334234034516
2023-09-23T20:19:05.478Z,87.3372689780859
2023-09-23T20:22:03.045Z,86.90945377272091
2023-09-23T20:25:02.577Z,86.27765596990044
2023-09-23T20:27:59.217Z,87.49039508012835
2023-09-23T20:30:59.716Z,86.35697802579968
2023-09-23T20:33:58.277Z,85.3082580923162
2023-09-23T20:36:59.793Z,86.56873056708771
2023-09-23T20:39:57.360Z,90.2043506815952
2023-09-23T20:42:57.108Z,89.57763922550774
2023-09-23T20:45:56.471Z,88.68090150063504
2023-09-23T20:48:54.023Z,87.54092319799712
2023-09-23T20:51:50.632Z,88.8985199417321
2023-09-23T20:54:47.202Z,88.01591262085678
2023-09-23T20:57:43.707Z,89.5211773289694
2023-09-23T21:00:46.318Z,91.14509317596499
2023-09-23T21:03:43.051Z,92.18143296566087
2023-09-23T21:06:42.045Z,91.99925071668054
2023-09-23T21:09:45.886Z,91.93522980281618
2023-09-23T21:12:42.513Z,91.83640668157612
2023-09-23T21:15:40.005Z,91.45963651410375
2023-09-23T21:18:38.692Z,89.95647288593051
2023-09-23T21:21:37.089Z,90.34976801535538
2023-09-23T21:24:33.632Z,90.4981857643451
2023-09-23T21:27:29.227Z,90.90081372777395
2023-09-23T21:30:24.786Z,89.57594590262129
2023-09-23T21:33:21.436Z,89.95071912681986
2023-09-23T21:36:17.883Z,89.68358884323798
2023-09-23T21:39:13.435Z,90.24679215276909
2023-09-23T21:42:11.027Z,91.6281209472504
2023-09-23T21:45:12.615Z,92.75824344771256
2023-09-23T21:48:08.302Z,95.11741981565004
2023-09-23T21:51:04.685Z,96.76444259496476
2023-09-23T21:54:02.255Z,97.42861148823101
2023-09-23T21:56:57.805Z,95.3746149181565
2023-09-23T21:59:56.386Z,92.61769245009356
2023-09-23T22:02:59.030Z,93.54574361206811
2023-09-23T22:05:56.502Z,91.89335186959325
2023-09-23T22:08:53.017Z,92.5356664524004
2023-09-23T22:11:51.652Z,92.61678241489405
2023-09-23T22:14:48.168Z,90.93541287798989
2023-09-23T22:17:46.790Z,89.06419809756133
2023-09-23T22:20:50.285Z,88.61694770959267
2023-09-23T22:23:49.061Z,88.1701283597656
2023-09-23T22:26:49.336Z,88.95331275796494
2023-09-23T22:29:45.919Z,88.50727129511584
2023-09-23T22:32:42.531Z,88.37901935678838
2023-09-23T22:35:40.051Z,87.74339088442574
2023-09-23T22:38:36.639Z,85.69622193348775
2023-09-23T22:41:32.398Z,86.96795231952498
2023-09-23T22:44:28.737Z,88.88539992161095
2023-09-23T22:47:24.299Z,86.39443502955852
2023-09-23T22:50:22.878Z,86.79266076395797
2023-09-23T22:53:18.440Z,85.3793194661829
2023-09-23T22:56:13.946Z,85.39582492562265
2023-09-23T22:59:11.491Z,85.2263356553899
2023-09-23T23:02:09.031Z,85.51039812191297
2023-09-23T23:05:05.694Z,87.03726326664957
2023-09-23T23:08:04.134Z,88.30456770598452
2023-09-23T23:11:00.712Z,87.82557768677206
2023-09-23T23:13:57.308Z,85.9102619521155
2023-09-23T23:16:53.867Z,84.25553850086122
2023-09-23T23:19:53.504Z,84.12510970980418
2023-09-23T23:22:50.006Z,84.3709000542864
2023-09-23T23:25:45.495Z,85.74702755011067
2023-09-23T23:28:41.091Z,86.7529694874698
2023-09-23T23:31:39.628Z,86.88710568278313
2023-09-23T23:34:38.168Z,86.44541915042586
2023-09-23T23:37:37.764Z,85.76689045065994
2023-09-23T23:40:33.370Z,86.25344086954
2023-09-23T23:43:28.873Z,87.51349122823167
2023-09-23T23:46:31.456Z,86.76890873448066
2023-09-23T23:49:26.978Z,85.53946828108656
2023-09-23T23:52:24.541Z,84.26515248945674
2023-09-23T23:55:20.054Z,84.56329436597346
2023-09-23T23:58:17.648Z,83.64729240288082
